Terminal Aerodrome Forecast
Issued by NWS

Home | Current Version | Previous Version | Text Only | Print | Product List | Glossary On
Versions: 1 2 3 4 5 6 7 8 9 10 11 12 13 14 15 16 17 18 19 20 21 22
000
FTUS43 KBIS 280112 AAA
TAFDIK
TAF AMD
KDIK 280112Z 2801/2824 08011KT P6SM OVC100
     FM280600 14006KT 3SM BR OVC009
     FM281400 27006KT P6SM BKN015
     FM281800 31010KT P6SM BKN050=

USA.gov is the U.S. government's official web portal to all federal, state and local government web resources and services.